URMMURMN

Guest
Details From URMM - MINERALNYYE VODY
To URMN - NALCHIK
Flight Number -
Tags generated
Created
Modified
Stats Distance 49 nm / 91 km
Max Altitude 0 ft / 0 m
Waypoints 3
Social Downloads 0
Likes 0
Share VATSIM

Download

Looking for another format? Having issues loading an existing format? Contact us
Advertisement - Login to hide

Notes

Basic altitude profile: - Ascent Rate: 2500ft/min - Ascent Speed: 250kts - Cruise Altitude: 35000ft - Cruise Speed: 420kts - Descent Rate: 1500ft/min - Descent Speed: 250kts Options: - Use NATs: yes - Use PACOTS: yes - Use low airways: yes - Use high airways: yes

Route

URMM MINPU URMN

ID Type Via Altitude Latitude Longitude Leg Dist Tot Dist Heading (true) Name
O URMM APT - 0 ft / 0 m 44.22507˚ 43.08189˚ - 0 nm - MINERALNYYE VODY
MINPU FIX - 0 ft / 0 m 44.22500˚ 43.08333˚ 0 nm 0 nm 94° / 94° -
O URMN APT - 0 ft / 0 m 43.51285˚ 43.63658˚ 49 nm 49 nm 151° / 151° NALCHIK

Altitude Profile

Advertisement - Login to hide

URMM

Details ICAO URMM (MRV)
Name MINERALNYYE VODY
Region Russia
Timezone Europe/Moscow (UTC+3.0)
Stats Elevation 1,054 ft / 321 m (AMSL)
Location 44.225073° 43.081891°
Runways 1
Magnetic Variation 7.387° E

METAR

URMM 141530Z 12006MPS 6000 -DZ OVC004 02/01 Q1017 R12/090070 NOSIG RMK MT OBSC QFE734/0979

Decode

TAF

TAF URMM 141358Z 1415/1515 11003G08MPS 3100 BR OVC004 TX04/1512Z TN00/1503Z TEMPO 1416/1509 0300 -DZ FG OVC002

Decode

Departure Runways

ID Width Length Bearing (true) Bearing (mag) Surface Threshold Offset Overrun Length
12 197 ft / 60 m 12,766 ft / 3,891 m 122.28° 114.89° Concrete 0 ft / 0 m 240 ft / 73 m
30 197 ft / 60 m 12,766 ft / 3,891 m 302.31° 294.92° Concrete 0 ft / 0 m 250 ft / 76 m

URMN

Details ICAO URMN (NAL)
Name NALCHIK
Region Russia
Timezone Europe/Moscow (UTC+3.0)
Stats Elevation 1,462 ft / 446 m (AMSL)
Location 43.512854° 43.636583°
Runways 1
Magnetic Variation 7.184° E

METAR

URMN 141500Z 34001MPS 0300 R24/0350 FZFG VV001 M01/M01 Q1016 R24/110060 NOSIG RMK QBB040 MT OBSC OBST OBSC QFE725

Decode

TAF

Not found

Destination Runways

ID Width Length Bearing (true) Bearing (mag) Surface Threshold Offset Overrun Length
06 138 ft / 42 m 7,256 ft / 2,212 m 62.40° 55.22° Asphalt 0 ft / 0 m 145 ft / 44 m
24 138 ft / 42 m 7,256 ft / 2,212 m 242.42° 235.24° Asphalt 0 ft / 0 m 160 ft / 49 m

Approach Navaids

Runway Type Ident Frequency Range Bearing (true) Bearing (mag) Slope Elevation
24 Localiser INL 110.50 MHz 18 nm / 33 km 241.33° 234.15° - 1,462 ft / 446 m (AMSL)
24 Glidescope INL 110.50 MHz 10 nm / 19 km 242.41° 235.23° 2.70° 1,462 ft / 446 m (AMSL)

Popular Alternatives